createdAt,value
2023-03-03T00:01:15.515Z,25.73
2023-03-03T00:03:42.609Z,24.75
2023-03-03T00:06:11.750Z,27.05
2023-03-03T00:08:38.687Z,27.15
2023-03-03T00:11:07.953Z,24.73
2023-03-03T00:13:55.696Z,26.65
2023-03-03T00:16:28.066Z,22.60
2023-03-03T00:18:55.397Z,22.58
2023-03-03T00:21:42.983Z,25.00
2023-03-03T00:24:24.839Z,22.70
2023-03-03T00:26:57.777Z,27.30
2023-03-03T00:29:29.477Z,28.15
2023-03-03T00:34:31.800Z,24.38
2023-03-03T00:36:58.372Z,28.00
2023-03-03T00:39:31.268Z,26.17
2023-03-03T00:42:00.533Z,30.05
2023-03-03T00:44:56.274Z,25.27
2023-03-03T00:47:31.467Z,25.27
2023-03-03T00:50:18.285Z,29.55
2023-03-03T00:52:52.887Z,29.15
2023-03-03T00:55:19.537Z,26.40
2023-03-03T00:57:46.759Z,23.98
2023-03-03T01:00:15.077Z,26.35
2023-03-03T01:02:41.683Z,21.35
2023-03-03T01:05:12.993Z,24.55
2023-03-03T01:07:39.947Z,24.40
2023-03-03T01:10:07.170Z,24.52
2023-03-03T01:12:34.557Z,20.65
2023-03-03T01:15:01.221Z,21.52
2023-03-03T01:17:28.915Z,26.05
2023-03-03T01:19:56.762Z,26.40
2023-03-03T01:22:23.442Z,22.15
2023-03-03T01:24:50.354Z,23.92
2023-03-03T01:27:17.093Z,23.55
2023-03-03T01:29:43.843Z,20.65
2023-03-03T01:32:10.660Z,24.80
2023-03-03T01:34:37.182Z,21.15
2023-03-03T01:37:04.521Z,27.33
2023-03-03T01:39:31.043Z,26.75
2023-03-03T01:41:57.885Z,24.95
2023-03-03T01:44:24.487Z,27.30
2023-03-03T01:47:06.225Z,24.35
2023-03-03T01:49:58.557Z,26.02
2023-03-03T01:52:30.440Z,28.00
2023-03-03T01:57:35.483Z,23.45
2023-03-03T02:00:05.695Z,24.25
2023-03-03T02:02:40.146Z,20.63
2023-03-03T02:05:07.642Z,24.08
2023-03-03T02:07:35.649Z,23.20
2023-03-03T02:10:05.717Z,26.75
2023-03-03T02:12:36.157Z,22.23
2023-03-03T02:15:16.385Z,27.60
2023-03-03T02:17:43.473Z,25.67
2023-03-03T02:20:20.578Z,26.17
2023-03-03T02:22:57.282Z,25.55
2023-03-03T02:25:58.602Z,24.50
2023-03-03T02:28:29.958Z,18.02
2023-03-03T02:30:58.163Z,24.92
2023-03-03T02:33:26.482Z,31.35
2023-03-03T02:35:53.324Z,22.23
2023-03-03T02:38:35.304Z,29.80
2023-03-03T02:41:31.056Z,30.98
2023-03-03T02:44:05.630Z,22.05
2023-03-03T02:46:38.867Z,25.77
2023-03-03T02:49:08.677Z,26.88
2023-03-03T02:51:36.946Z,23.77
2023-03-03T02:54:05.550Z,21.88
2023-03-03T02:56:33.181Z,22.90
2023-03-03T02:59:00.146Z,27.45
2023-03-03T03:01:28.295Z,29.08
2023-03-03T03:03:54.993Z,22.15
2023-03-03T03:06:23.165Z,25.20
2023-03-03T03:08:49.954Z,27.65
2023-03-03T03:11:16.778Z,26.13
2023-03-03T03:13:44.955Z,28.42
2023-03-03T03:16:12.818Z,28.48
2023-03-03T03:18:39.851Z,26.20
2023-03-03T03:21:11.467Z,29.08
2023-03-03T03:23:40.428Z,25.88
2023-03-03T03:26:07.778Z,22.67
2023-03-03T03:28:34.984Z,24.35
2023-03-03T03:31:02.962Z,20.25
2023-03-03T03:33:29.795Z,24.45
2023-03-03T03:35:58.597Z,18.52
2023-03-03T03:38:27.121Z,27.35
2023-03-03T03:40:55.019Z,24.98
2023-03-03T03:43:22.778Z,21.58
2023-03-03T03:45:49.743Z,21.25
2023-03-03T03:48:17.620Z,20.80
2023-03-03T03:50:47.818Z,22.15
2023-03-03T03:53:16.088Z,28.23
2023-03-03T03:55:42.995Z,21.27
2023-03-03T03:58:13.959Z,25.38
2023-03-03T04:00:42.360Z,24.45
2023-03-03T04:03:10.962Z,20.80
2023-03-03T04:05:38.059Z,31.83
2023-03-03T04:08:06.377Z,25.25
2023-03-03T04:10:33.575Z,21.13
2023-03-03T04:13:00.317Z,27.15
2023-03-03T04:15:27.108Z,23.45
2023-03-03T04:17:54.673Z,27.60
2023-03-03T04:20:21.345Z,23.45
2023-03-03T04:22:48.621Z,25.67
2023-03-03T04:25:16.951Z,21.88
2023-03-03T04:27:45.636Z,31.08
2023-03-03T04:30:15.872Z,24.08
2023-03-03T04:32:45.741Z,21.73
2023-03-03T04:35:13.408Z,24.35
2023-03-03T04:37:43.168Z,22.95
2023-03-03T04:40:12.019Z,21.05
2023-03-03T04:42:40.238Z,24.73
2023-03-03T04:45:09.158Z,26.73
2023-03-03T04:47:36.422Z,21.73
2023-03-03T04:50:03.564Z,22.63
2023-03-03T04:52:32.261Z,21.27
2023-03-03T04:54:59.292Z,21.77
2023-03-03T04:57:26.886Z,22.55
2023-03-03T04:59:54.359Z,22.58
2023-03-03T05:02:21.286Z,26.40
2023-03-03T05:04:48.266Z,30.00
2023-03-03T05:07:14.846Z,24.55
2023-03-03T05:09:41.790Z,23.55
2023-03-03T05:12:08.455Z,23.70
2023-03-03T05:14:35.102Z,27.75
2023-03-03T05:17:03.394Z,22.05
2023-03-03T05:19:30.178Z,22.77
2023-03-03T05:21:57.579Z,23.30
2023-03-03T05:24:24.413Z,21.98
2023-03-03T05:26:51.032Z,24.67
2023-03-03T05:29:17.831Z,25.33
2023-03-03T05:31:45.762Z,21.13
2023-03-03T05:34:12.507Z,23.00
2023-03-03T05:36:39.141Z,23.17
2023-03-03T05:39:05.925Z,23.80
2023-03-03T05:41:32.700Z,28.73
2023-03-03T05:43:59.336Z,29.10
2023-03-03T05:46:26.208Z,23.17
2023-03-03T05:48:52.918Z,24.73
2023-03-03T05:51:19.775Z,29.15
2023-03-03T05:53:46.346Z,31.63
2023-03-03T05:56:12.887Z,23.45
2023-03-03T05:58:39.440Z,25.80
2023-03-03T06:01:06.157Z,20.85
2023-03-03T06:03:33.476Z,20.65
2023-03-03T06:06:00.150Z,25.08
2023-03-03T06:08:26.902Z,24.77
2023-03-03T06:10:53.698Z,25.65
2023-03-03T06:13:20.616Z,24.25
2023-03-03T06:15:47.195Z,27.88
2023-03-03T06:18:13.932Z,18.35
2023-03-03T06:20:40.459Z,22.23
2023-03-03T06:23:07.194Z,22.30
2023-03-03T06:25:35.875Z,21.58
2023-03-03T06:28:03.909Z,18.73
2023-03-03T06:30:30.783Z,18.25
2023-03-03T06:32:57.599Z,23.38
2023-03-03T06:35:24.478Z,21.55
2023-03-03T06:37:51.856Z,23.63
2023-03-03T06:40:18.604Z,23.10
2023-03-03T06:42:45.964Z,25.77
2023-03-03T06:45:12.946Z,26.35
2023-03-03T06:47:39.778Z,24.42
2023-03-03T06:50:07.228Z,25.73
2023-03-03T06:52:34.151Z,22.48
2023-03-03T06:55:09.810Z,27.65
2023-03-03T06:57:37.032Z,28.00
2023-03-03T07:00:18.372Z,23.30
2023-03-03T07:02:45.008Z,28.88
2023-03-03T07:05:17.893Z,28.58
2023-03-03T07:07:45.010Z,28.55
2023-03-03T07:10:27.882Z,26.58
2023-03-03T07:12:58.368Z,33.95
2023-03-03T07:15:32.832Z,37.92
2023-03-03T07:18:00.052Z,34.47
2023-03-03T07:20:35.197Z,29.88
2023-03-03T07:23:18.730Z,30.67
2023-03-03T07:25:46.649Z,31.05
2023-03-03T07:28:29.502Z,34.95
2023-03-03T07:30:58.026Z,37.63
2023-03-03T07:33:35.190Z,37.33
2023-03-03T07:36:03.723Z,34.67
2023-03-03T07:38:49.615Z,36.53
2023-03-03T07:41:20.853Z,32.45
2023-03-03T07:44:06.463Z,33.80
2023-03-03T07:46:52.657Z,34.58
2023-03-03T07:49:23.656Z,33.03
2023-03-03T07:51:57.349Z,29.15
2023-03-03T07:54:35.994Z,36.20
2023-03-03T07:57:21.023Z,36.05
2023-03-03T07:59:52.247Z,32.40
2023-03-03T08:03:04.111Z,36.72
2023-03-03T08:05:35.958Z,33.22
2023-03-03T08:08:26.925Z,37.03
2023-03-03T08:10:55.487Z,31.52
2023-03-03T08:13:43.103Z,31.27
2023-03-03T08:16:09.722Z,39.60
2023-03-03T08:18:39.988Z,37.72
2023-03-03T08:21:26.300Z,37.50
2023-03-03T08:23:53.753Z,33.83
2023-03-03T08:26:22.192Z,40.55
2023-03-03T08:28:49.504Z,33.92
2023-03-03T08:31:27.988Z,32.60
2023-03-03T08:34:04.626Z,38.05
2023-03-03T08:36:33.642Z,42.03
2023-03-03T08:39:01.971Z,34.03
2023-03-03T08:41:28.674Z,36.50
2023-03-03T08:43:55.186Z,34.45
2023-03-03T08:46:21.988Z,34.92
2023-03-03T08:48:49.872Z,38.13
2023-03-03T08:51:16.536Z,38.40
2023-03-03T08:53:43.156Z,35.72
2023-03-03T08:56:10.646Z,34.30
2023-03-03T08:58:37.533Z,41.10
2023-03-03T09:01:04.922Z,37.28
2023-03-03T09:03:31.786Z,31.13
2023-03-03T09:05:58.418Z,33.97
2023-03-03T09:08:25.141Z,31.60
2023-03-03T09:10:51.866Z,48.33
2023-03-03T09:13:19.804Z,31.38
2023-03-03T09:15:47.669Z,35.95
2023-03-03T09:18:18.876Z,40.33
2023-03-03T09:20:45.516Z,36.92
2023-03-03T09:23:31.124Z,38.75
2023-03-03T09:26:11.664Z,31.48
2023-03-03T09:28:38.211Z,39.80
2023-03-03T09:31:22.211Z,32.00
2023-03-03T09:33:55.129Z,35.63
2023-03-03T09:36:38.584Z,35.97
2023-03-03T09:39:31.985Z,43.17
2023-03-03T09:42:07.638Z,40.95
2023-03-03T09:44:37.122Z,38.33
2023-03-03T09:47:06.656Z,36.70
2023-03-03T09:49:36.355Z,39.97
2023-03-03T09:52:16.291Z,42.53
2023-03-03T09:55:00.928Z,37.72
2023-03-03T09:57:36.292Z,33.22
2023-03-03T10:00:15.997Z,38.63
2023-03-03T10:03:08.692Z,36.72
2023-03-03T10:05:55.585Z,33.88
2023-03-03T10:08:37.124Z,35.25
2023-03-03T10:11:22.704Z,36.50
2023-03-03T10:14:20.481Z,33.28
2023-03-03T10:16:56.501Z,39.83
2023-03-03T10:19:38.512Z,35.45
2023-03-03T10:24:59.652Z,40.33
2023-03-03T10:27:45.752Z,34.63
2023-03-03T10:30:38.953Z,30.45
2023-03-03T10:33:22.544Z,37.20
2023-03-03T10:36:08.704Z,37.50
2023-03-03T10:38:55.720Z,30.92
2023-03-03T10:41:55.184Z,34.90
2023-03-03T10:44:38.600Z,39.28
2023-03-03T10:47:44.374Z,37.20
2023-03-03T10:50:28.204Z,33.58
2023-03-03T10:53:27.447Z,39.55
2023-03-03T10:56:11.136Z,39.50
2023-03-03T10:58:40.744Z,35.30
2023-03-03T11:01:25.593Z,38.30
2023-03-03T11:04:01.277Z,35.80
2023-03-03T11:06:58.810Z,38.17
2023-03-03T11:10:01.229Z,42.35
2023-03-03T11:12:51.617Z,33.90
2023-03-03T11:15:44.825Z,32.75
2023-03-03T11:18:42.573Z,34.10
2023-03-03T11:21:27.944Z,33.70
2023-03-03T11:24:00.847Z,37.60
2023-03-03T11:26:41.884Z,34.72
2023-03-03T11:29:45.495Z,38.45
2023-03-03T11:32:36.937Z,33.88
2023-03-03T11:35:44.123Z,35.85
2023-03-03T11:38:19.605Z,35.50
2023-03-03T11:40:53.670Z,40.67
2023-03-03T11:43:37.754Z,36.30
2023-03-03T11:46:13.098Z,37.40
2023-03-03T11:49:01.954Z,35.67
2023-03-03T11:51:34.202Z,34.13
2023-03-03T11:54:24.004Z,30.63
2023-03-03T11:56:54.750Z,36.33
2023-03-03T11:59:39.323Z,37.65
2023-03-03T12:02:27.182Z,36.85
2023-03-03T12:05:04.948Z,35.70
2023-03-03T12:08:14.202Z,37.70
2023-03-03T12:10:59.490Z,40.88
2023-03-03T12:13:39.676Z,41.67
2023-03-03T12:16:15.981Z,36.55
2023-03-03T12:19:01.587Z,32.80
2023-03-03T12:21:37.001Z,41.45
2023-03-03T12:24:06.678Z,32.80
2023-03-03T12:27:08.606Z,37.85
2023-03-03T12:30:20.097Z,32.67
2023-03-03T12:33:08.285Z,34.97
2023-03-03T12:35:50.518Z,33.67
2023-03-03T12:38:44.915Z,39.92
2023-03-03T12:41:33.315Z,35.08
2023-03-03T12:44:03.147Z,35.47
2023-03-03T12:46:32.737Z,35.97
2023-03-03T12:48:59.353Z,37.08
2023-03-03T12:52:01.311Z,36.92
2023-03-03T12:54:39.353Z,33.85
2023-03-03T12:57:27.470Z,36.40
2023-03-03T13:00:15.985Z,35.90
2023-03-03T13:03:05.610Z,36.15
2023-03-03T13:05:50.903Z,31.42
2023-03-03T13:08:39.172Z,32.00
2023-03-03T13:11:29.002Z,43.78
2023-03-03T13:14:19.122Z,34.88
2023-03-03T13:16:58.989Z,37.17
2023-03-03T13:19:42.721Z,32.17
2023-03-03T13:22:18.005Z,32.35
2023-03-03T13:24:44.701Z,34.15
2023-03-03T13:27:19.098Z,37.78
2023-03-03T13:30:19.621Z,31.05
2023-03-03T13:33:07.342Z,35.17
2023-03-03T13:35:42.950Z,40.95
2023-03-03T13:38:13.903Z,38.60
2023-03-03T13:40:45.288Z,40.57
2023-03-03T13:43:24.128Z,35.60
2023-03-03T13:46:14.939Z,39.10
2023-03-03T13:48:52.183Z,35.55
2023-03-03T13:51:46.739Z,32.92
2023-03-03T13:54:19.212Z,31.83
2023-03-03T13:56:48.509Z,34.08
2023-03-03T13:59:32.065Z,32.35
2023-03-03T14:02:16.779Z,36.92
2023-03-03T14:05:31.540Z,37.05
2023-03-03T14:08:07.578Z,35.28
2023-03-03T14:10:57.060Z,34.00
2023-03-03T14:13:55.928Z,35.88
2023-03-03T14:16:28.719Z,32.15
2023-03-03T14:19:02.416Z,32.03
2023-03-03T14:21:36.611Z,41.03
2023-03-03T14:24:17.088Z,33.05
2023-03-03T14:26:55.970Z,38.13
2023-03-03T14:29:28.883Z,34.88
2023-03-03T14:32:01.968Z,37.78
2023-03-03T14:34:40.087Z,38.92
2023-03-03T14:37:29.984Z,35.80
2023-03-03T14:40:17.184Z,39.80
2023-03-03T14:42:52.702Z,36.42
2023-03-03T14:45:40.114Z,36.35
2023-03-03T14:48:23.718Z,35.35
2023-03-03T14:50:53.932Z,35.65
2023-03-03T14:53:42.514Z,36.88
2023-03-03T14:56:23.738Z,33.28
2023-03-03T14:58:54.298Z,31.30
2023-03-03T15:01:30.564Z,33.75
2023-03-03T15:03:57.416Z,36.05
2023-03-03T15:06:51.639Z,29.67
2023-03-03T15:09:24.401Z,35.90
2023-03-03T15:11:53.238Z,35.60
2023-03-03T15:14:23.123Z,38.78
2023-03-03T15:16:49.762Z,34.28
2023-03-03T15:19:38.175Z,35.55
2023-03-03T15:22:20.291Z,38.47
2023-03-03T15:25:09.033Z,39.10
2023-03-03T15:27:41.886Z,38.35
2023-03-03T15:30:24.905Z,33.55
2023-03-03T15:33:03.151Z,35.58
2023-03-03T15:35:48.255Z,34.80
2023-03-03T15:38:17.911Z,39.25
2023-03-03T15:41:06.427Z,40.58
2023-03-03T15:43:51.130Z,30.65
2023-03-03T15:46:25.710Z,34.08
2023-03-03T15:49:11.382Z,34.95
2023-03-03T15:52:03.399Z,37.60
2023-03-03T15:54:44.911Z,32.90
2023-03-03T15:57:21.921Z,34.00
2023-03-03T15:59:59.379Z,38.63
2023-03-03T16:02:49.132Z,32.55
2023-03-03T16:05:33.341Z,35.58
2023-03-03T16:08:00.089Z,38.97
2023-03-03T16:10:46.424Z,34.42
2023-03-03T16:13:46.983Z,37.40
2023-03-03T16:16:19.513Z,33.40
2023-03-03T16:18:58.522Z,36.65
2023-03-03T16:21:47.631Z,36.70
2023-03-03T16:24:47.946Z,37.22
2023-03-03T16:27:32.753Z,41.90
2023-03-03T16:30:30.135Z,42.50
2023-03-03T16:33:08.879Z,49.00
2023-03-03T16:35:46.671Z,41.38
2023-03-03T16:38:19.617Z,35.13
2023-03-03T16:40:59.777Z,42.80
2023-03-03T16:43:32.418Z,38.60
2023-03-03T16:46:42.212Z,41.65
2023-03-03T16:49:27.190Z,35.95
2023-03-03T16:51:59.654Z,40.55
2023-03-03T16:54:54.236Z,37.22
2023-03-03T16:57:48.944Z,31.75
2023-03-03T17:00:29.490Z,42.13
2023-03-03T17:03:05.236Z,39.13
2023-03-03T17:05:54.448Z,44.10
2023-03-03T17:08:33.313Z,34.08
2023-03-03T17:11:25.522Z,31.60
2023-03-03T17:14:01.805Z,31.90
2023-03-03T17:16:49.804Z,35.65
2023-03-03T17:19:40.480Z,37.97
2023-03-03T17:22:27.575Z,37.88
2023-03-03T17:25:17.498Z,33.40
2023-03-03T17:28:02.399Z,40.03
2023-03-03T17:30:39.099Z,33.72
2023-03-03T17:34:02.904Z,36.92
2023-03-03T17:36:46.267Z,25.92
2023-03-03T17:39:27.504Z,26.33
2023-03-03T17:42:12.074Z,30.77
2023-03-03T17:44:50.690Z,34.92
2023-03-03T17:48:11.126Z,32.03
2023-03-03T17:50:43.838Z,28.30
2023-03-03T17:53:15.923Z,28.23
2023-03-03T17:55:48.341Z,25.95
2023-03-03T17:58:55.576Z,32.15
2023-03-03T18:01:59.147Z,36.80
2023-03-03T18:04:34.720Z,38.88
2023-03-03T18:07:14.505Z,34.72
2023-03-03T18:10:14.191Z,37.22
2023-03-03T18:12:47.347Z,38.95
2023-03-03T18:15:33.106Z,47.67
2023-03-03T18:18:21.657Z,42.00
2023-03-03T18:21:09.562Z,40.65
2023-03-03T18:23:47.374Z,42.25
2023-03-03T18:26:35.095Z,43.58
2023-03-03T18:29:13.645Z,39.90
2023-03-03T18:31:45.861Z,38.85
2023-03-03T18:34:21.704Z,34.95
2023-03-03T18:36:53.365Z,38.35
2023-03-03T18:39:50.244Z,40.08
2023-03-03T18:42:16.745Z,35.47
2023-03-03T18:44:44.652Z,34.20
2023-03-03T18:47:11.924Z,33.50
2023-03-03T18:50:07.766Z,37.15
2023-03-03T18:52:35.238Z,38.13
2023-03-03T18:55:23.672Z,40.75
2023-03-03T18:58:28.447Z,40.08
2023-03-03T19:00:57.030Z,40.28
2023-03-03T19:03:46.861Z,44.28
2023-03-03T19:06:32.950Z,34.42
2023-03-03T19:08:59.611Z,40.53
2023-03-03T19:11:44.890Z,38.42
2023-03-03T19:14:17.465Z,37.10
2023-03-03T19:16:45.366Z,37.97
2023-03-03T19:19:14.879Z,35.85
2023-03-03T19:21:43.465Z,40.08
2023-03-03T19:24:16.722Z,36.75
2023-03-03T19:26:51.816Z,35.05
2023-03-03T19:29:36.839Z,35.28
2023-03-03T19:32:31.108Z,37.95
2023-03-03T19:35:20.143Z,38.92
2023-03-03T19:37:58.984Z,37.03
2023-03-03T19:40:37.023Z,38.70
2023-03-03T19:43:22.335Z,34.88
2023-03-03T19:46:19.709Z,40.88
2023-03-03T19:48:52.380Z,35.60
2023-03-03T19:51:45.460Z,37.28
2023-03-03T19:54:23.446Z,33.72
2023-03-03T19:56:54.807Z,43.90
2023-03-03T19:59:37.401Z,39.97
2023-03-03T20:02:28.986Z,39.90
2023-03-03T20:05:20.103Z,37.20
2023-03-03T20:07:54.790Z,37.42
2023-03-03T20:10:45.962Z,31.05
2023-03-03T20:13:42.299Z,34.42
2023-03-03T20:16:24.460Z,44.45
2023-03-03T20:19:29.227Z,40.22
2023-03-03T20:22:11.086Z,34.17
2023-03-03T20:27:19.919Z,35.63
2023-03-03T20:30:16.837Z,35.50
2023-03-03T20:33:18.128Z,39.33
2023-03-03T20:36:04.964Z,41.47
2023-03-03T20:38:43.653Z,39.85
2023-03-03T20:41:41.501Z,46.72
2023-03-03T20:44:17.218Z,34.70
2023-03-03T20:46:52.990Z,43.85
2023-03-03T20:49:22.489Z,44.45
2023-03-03T20:51:58.524Z,39.10
2023-03-03T20:54:37.620Z,39.08
2023-03-03T20:57:34.062Z,49.42
2023-03-03T21:00:03.585Z,40.25
2023-03-03T21:02:45.393Z,45.80
2023-03-03T21:05:18.658Z,36.97
2023-03-03T21:08:03.103Z,41.70
2023-03-03T21:10:35.465Z,38.17
2023-03-03T21:13:34.131Z,42.63
2023-03-03T21:16:10.868Z,34.00
2023-03-03T21:18:37.981Z,42.30
2023-03-03T21:21:05.346Z,47.72
2023-03-03T21:23:32.127Z,39.55
2023-03-03T21:25:58.882Z,41.08
2023-03-03T21:28:27.448Z,42.88
2023-03-03T21:31:07.976Z,46.70
2023-03-03T21:33:55.876Z,44.50
2023-03-03T21:36:47.350Z,39.30
2023-03-03T21:39:30.771Z,42.67
2023-03-03T21:41:57.435Z,38.08
2023-03-03T21:44:37.583Z,40.60
2023-03-03T21:47:07.335Z,40.47
2023-03-03T21:49:34.400Z,42.55
2023-03-03T21:52:02.045Z,37.65
2023-03-03T21:54:29.491Z,36.17
2023-03-03T21:56:56.223Z,34.53
2023-03-03T21:59:23.334Z,31.45
2023-03-03T22:01:49.929Z,39.42
2023-03-03T22:04:16.774Z,38.80
2023-03-03T22:06:43.887Z,31.23
2023-03-03T22:09:11.046Z,35.80
2023-03-03T22:11:39.589Z,36.75
2023-03-03T22:14:07.243Z,40.85
2023-03-03T22:16:34.660Z,31.83
2023-03-03T22:19:02.772Z,41.97
2023-03-03T22:21:30.101Z,38.42
2023-03-03T22:23:57.544Z,38.05
2023-03-03T22:26:24.427Z,40.67
2023-03-03T22:28:50.979Z,36.03
2023-03-03T22:31:19.158Z,41.67
2023-03-03T22:33:47.462Z,44.60
2023-03-03T22:36:15.412Z,30.92
2023-03-03T22:38:42.266Z,36.42
2023-03-03T22:41:09.358Z,46.30
2023-03-03T22:43:36.112Z,46.67
2023-03-03T22:46:02.891Z,50.50
2023-03-03T22:48:30.929Z,45.67
2023-03-03T22:50:57.875Z,41.45
2023-03-03T22:53:25.718Z,52.75
2023-03-03T22:55:53.322Z,44.97
2023-03-03T22:58:20.610Z,49.50
2023-03-03T23:00:48.647Z,58.72
2023-03-03T23:03:15.722Z,53.08
2023-03-03T23:05:43.315Z,47.75
2023-03-03T23:08:13.351Z,46.40
2023-03-03T23:10:40.515Z,41.03
2023-03-03T23:13:08.575Z,43.03
2023-03-03T23:15:35.468Z,37.72
2023-03-03T23:18:02.925Z,41.47
2023-03-03T23:20:31.846Z,35.50
2023-03-03T23:22:58.948Z,51.67
2023-03-03T23:25:25.790Z,58.72
2023-03-03T23:27:53.827Z,51.55
2023-03-03T23:30:22.203Z,56.92
2023-03-03T23:32:49.312Z,47.95
2023-03-03T23:35:16.828Z,56.83
2023-03-03T23:37:43.543Z,64.28
2023-03-03T23:40:11.064Z,49.20
2023-03-03T23:42:37.726Z,42.67
2023-03-03T23:45:05.027Z,48.42
2023-03-03T23:47:31.590Z,44.72
2023-03-03T23:49:58.288Z,44.10
2023-03-03T23:52:25.092Z,37.90
2023-03-03T23:54:53.136Z,44.42
2023-03-03T23:57:20.172Z,41.03
2023-03-03T23:59:46.958Z,36.15
